Time;durP1;ratioP1;P1;durP2;ratioP2;P2;SDS_P1;SDS_P2;PMS_P1;PMS_P2;Temp;Humidity;BMP_temperature;BMP_pressure;BME280_temperature;BME280_humidity;BME280_pressure;Samples;Min_cycle;Max_cycle;Signal;HPM_P1;HPM_P2
2023/08/10 00:00:28;;;;;;;;;;;;;;;;;;5072101;28;20372;-68
2023/08/10 00:02:55;;;;;;;;;;;;;;;;;;5072842;28;19970;-68
2023/08/10 00:05:20;;;;;;;;;;;;;;;;;;5071048;28;20008;-68
2023/08/10 00:07:46;;;;;;;;;;;;;;;;;;5071011;28;20408;-68
2023/08/10 00:10:12;;;;;;;;;;;;;;;;;;5060417;28;19995;-68
2023/08/10 00:12:38;;;;;;;;;;;;;;;;;;5072149;28;20011;-68
2023/08/10 00:15:04;;;;;;;;;;;;;;;;;;5057979;28;19909;-68
2023/08/10 00:17:30;;;;;;;;;;;;;;;;;;5052358;28;20391;-69
2023/08/10 00:19:56;;;;;;;;;;;;;;;;;;5072160;28;20016;-68
2023/08/10 00:22:22;;;;;;;;;;;;;;;;;;5072289;28;19909;-68
2023/08/10 00:24:48;;;;;;;;;;;;;;;;;;5072060;28;19999;-68
2023/08/10 00:27:14;;;;;;;;;;;;;;;;;;5072018;28;20435;-66
2023/08/10 00:29:40;;;;;;;;;;;;;;;;;;5067900;28;20018;-66
2023/08/10 00:32:06;;;;;;;;;;;;;;;;;;5051863;28;19951;-65
2023/08/10 00:34:32;;;;;;;;;;;;;;;;;;5069601;28;20272;-67
2023/08/10 00:36:57;;;;;;;;;;;;;;;;;;5072612;28;19914;-66
2023/08/10 00:39:23;;;;;;;;;;;;;;;;;;5063317;28;19916;-66
2023/08/10 00:41:49;;;;;;;;;;;;;;;;;;5051493;28;19912;-66
2023/08/10 00:44:16;;;;;;;;;;;;;;;;;;5059518;28;20016;-66
2023/08/10 00:46:42;;;;;;;;;;;;;;;;;;5068689;28;19919;-66
2023/08/10 00:49:08;;;;;;;;;;;;;;;;;;5072054;28;19913;-65
2023/08/10 00:51:34;;;;;;;;;;;;;;;;;;5070125;28;20298;-66
2023/08/10 00:53:59;;;;;;;;;;;;;;;;;;5065762;28;19923;-66
2023/08/10 00:56:25;;;;;;;;;;;;;;;;;;5062310;28;19962;-66
2023/08/10 00:58:51;;;;;;;;;;;;;;;;;;5070484;28;19965;-66
2023/08/10 01:01:17;;;;;;;;;;;;;;;;;;5071459;28;19920;-66
2023/08/10 01:03:43;;;;;;;;;;;;;;;;;;5061595;28;20008;-66
2023/08/10 01:06:09;;;;;;;;;;;;;;;;;;5065144;28;20488;-66
2023/08/10 01:08:36;;;;;;;;;;;;;;;;;;5064568;28;19916;-66
2023/08/10 01:11:02;;;;;;;;;;;;;;;;;;5060956;28;19921;-66
2023/08/10 01:13:28;;;;;;;;;;;;;;;;;;5074207;28;19956;-66
2023/08/10 01:15:54;;;;;;;;;;;;;;;;;;5064718;28;20465;-66
2023/08/10 01:18:20;;;;;;;;;;;;;;;;;;5055269;28;19915;-66
2023/08/10 01:20:46;;;;;;;;;;;;;;;;;;5055084;28;20004;-66
2023/08/10 01:23:12;;;;;;;;;;;;;;;;;;5061331;28;20680;-66
2023/08/10 01:25:37;;;;;;;;;;;;;;;;;;5075579;28;19912;-66
2023/08/10 01:28:04;;;;;;;;;;;;;;;;;;5074676;28;20304;-66
2023/08/10 01:30:30;;;;;;;;;;;;;;;;;;5074224;28;19908;-66
2023/08/10 01:32:56;;;;;;;;;;;;;;;;;;5073312;28;20023;-66
2023/08/10 01:35:22;;;;;;;;;;;;;;;;;;5066205;28;19913;-64
2023/08/10 01:37:47;;;;;;;;;;;;;;;;;;5055230;28;19959;-66
2023/08/10 01:40:13;;;;;;;;;;;;;;;;;;5064810;28;19916;-65
2023/08/10 01:42:39;;;;;;;;;;;;;;;;;;5075276;28;20284;-66
2023/08/10 01:45:05;;;;;;;;;;;;;;;;;;5074795;28;20368;-66
2023/08/10 01:47:31;;;;;;;;;;;;;;;;;;5074494;28;19919;-66
2023/08/10 01:49:57;;;;;;;;;;;;;;;;;;5072693;28;19921;-66
2023/08/10 01:52:23;;;;;;;;;;;;;;;;;;5063944;28;19962;-66
2023/08/10 01:54:49;;;;;;;;;;;;;;;;;;5073468;28;20420;-66
2023/08/10 01:57:15;;;;;;;;;;;;;;;;;;5060236;28;19960;-66
2023/08/10 01:59:41;;;;;;;;;;;;;;;;;;5069115;28;20003;-66
2023/08/10 02:02:07;;;;;;;;;;;;;;;;;;5058605;28;19963;-67
2023/08/10 02:04:32;;;;;;;;;;;;;;;;;;5069390;28;19916;-67
2023/08/10 02:06:58;;;;;;;;;;;;;;;;;;5059812;28;20449;-66
2023/08/10 02:09:24;;;;;;;;;;;;;;;;;;5068861;28;19920;-66
2023/08/10 02:11:50;;;;;;;;;;;;;;;;;;5080093;28;20308;-65
2023/08/10 02:14:16;;;;;;;;;;;;;;;;;;5058841;28;19913;-66
2023/08/10 02:16:42;;;;;;;;;;;;;;;;;;5054304;28;19920;-66
2023/08/10 02:19:08;;;;;;;;;;;;;;;;;;5056508;28;19931;-66
2023/08/10 02:21:34;;;;;;;;;;;;;;;;;;5068208;28;20025;-66
2023/08/10 02:24:00;;;;;;;;;;;;;;;;;;5070512;28;20450;-66
2023/08/10 02:26:26;;;;;;;;;;;;;;;;;;5055715;28;19923;-66
2023/08/10 02:28:52;;;;;;;;;;;;;;;;;;5061582;28;19915;-66
2023/08/10 02:31:17;;;;;;;;;;;;;;;;;;5072605;28;19912;-66
2023/08/10 02:33:43;;;;;;;;;;;;;;;;;;5072160;28;19912;-66
2023/08/10 02:36:09;;;;;;;;;;;;;;;;;;5065997;28;19955;-66
2023/08/10 02:38:35;;;;;;;;;;;;;;;;;;5070622;28;19916;-66
2023/08/10 02:41:01;;;;;;;;;;;;;;;;;;5058422;28;19917;-66
2023/08/10 02:43:27;;;;;;;;;;;;;;;;;;5065386;28;19979;-66
2023/08/10 02:45:53;;;;;;;;;;;;;;;;;;5067274;28;20003;-66
2023/08/10 02:48:20;;;;;;;;;;;;;;;;;;5064134;28;19913;-66
2023/08/10 02:50:46;;;;;;;;;;;;;;;;;;5061054;28;20529;-66
2023/08/10 02:53:12;;;;;;;;;;;;;;;;;;5062046;28;19948;-66
2023/08/10 02:55:38;;;;;;;;;;;;;;;;;;5061935;28;19914;-65
2023/08/10 02:58:04;;;;;;;;;;;;;;;;;;5073336;28;19909;-66
2023/08/10 03:00:30;;;;;;;;;;;;;;;;;;5069919;28;19919;-66
2023/08/10 03:02:56;;;;;;;;;;;;;;;;;;5060465;28;20403;-66
2023/08/10 03:05:22;;;;;;;;;;;;;;;;;;5068771;28;19917;-66
2023/08/10 03:07:48;;;;;;;;;;;;;;;;;;5073582;28;19913;-66
2023/08/10 03:10:14;;;;;;;;;;;;;;;;;;5065609;28;19916;-66
2023/08/10 03:12:40;;;;;;;;;;;;;;;;;;5064561;28;20336;-66
2023/08/10 03:15:09;;;;;;;;;;;;;;;;;;5073038;28;19912;-66
2023/08/10 03:17:35;;;;;;;;;;;;;;;;;;5068320;28;20003;-66
2023/08/10 03:20:01;;;;;;;;;;;;;;;;;;5061199;28;19967;-66
2023/08/10 03:22:27;;;;;;;;;;;;;;;;;;5072846;28;19935;-66
2023/08/10 03:24:53;;;;;;;;;;;;;;;;;;5073048;28;19946;-66
2023/08/10 03:27:19;;;;;;;;;;;;;;;;;;5072221;28;19912;-66
2023/08/10 03:29:45;;;;;;;;;;;;;;;;;;5071305;28;19999;-66
2023/08/10 03:32:11;;;;;;;;;;;;;;;;;;5056946;28;20364;-65
2023/08/10 03:34:36;;;;;;;;;;;;;;;;;;5072667;28;19912;-66
2023/08/10 03:37:03;;;;;;;;;;;;;;;;;;5072141;28;20318;-66
2023/08/10 03:39:29;;;;;;;;;;;;;;;;;;5072439;28;20334;-66
2023/08/10 03:41:54;;;;;;;;;;;;;;;;;;5074184;28;19916;-66
2023/08/10 03:44:21;;;;;;;;;;;;;;;;;;5073690;28;19998;-65
2023/08/10 03:46:48;;;;;;;;;;;;;;;;;;5070698;28;19912;-65
2023/08/10 03:49:14;;;;;;;;;;;;;;;;;;5055054;28;20007;-66
2023/08/10 03:51:40;;;;;;;;;;;;;;;;;;5071450;28;20005;-66
2023/08/10 03:54:05;;;;;;;;;;;;;;;;;;5055392;28;19908;-65
2023/08/10 03:56:31;;;;;;;;;;;;;;;;;;5052924;28;19913;-67
2023/08/10 03:58:57;;;;;;;;;;;;;;;;;;5066858;28;19920;-67
2023/08/10 04:01:23;;;;;;;;;;;;;;;;;;5071231;28;19920;-68
2023/08/10 04:03:49;;;;;;;;;;;;;;;;;;5062660;28;19972;-67
2023/08/10 04:06:16;;;;;;;;;;;;;;;;;;5068186;28;19938;-66
2023/08/10 04:08:42;;;;;;;;;;;;;;;;;;5070485;28;19918;-67
2023/08/10 04:11:08;;;;;;;;;;;;;;;;;;5071044;28;20007;-67
2023/08/10 04:13:34;;;;;;;;;;;;;;;;;;5061404;28;19921;-67
2023/08/10 04:16:00;;;;;;;;;;;;;;;;;;5071874;28;19955;-67
2023/08/10 04:18:26;;;;;;;;;;;;;;;;;;5070958;28;20330;-67
2023/08/10 04:20:52;;;;;;;;;;;;;;;;;;5070830;28;19940;-67
2023/08/10 04:23:19;;;;;;;;;;;;;;;;;;5071424;28;19920;-67
2023/08/10 04:25:45;;;;;;;;;;;;;;;;;;5069137;28;19919;-67
2023/08/10 04:28:10;;;;;;;;;;;;;;;;;;5063417;28;19913;-67
2023/08/10 04:30:36;;;;;;;;;;;;;;;;;;5070338;28;20027;-67
2023/08/10 04:33:03;;;;;;;;;;;;;;;;;;5071491;28;19913;-67
2023/08/10 04:35:29;;;;;;;;;;;;;;;;;;5070875;28;19924;-67
2023/08/10 04:37:55;;;;;;;;;;;;;;;;;;5071155;28;19955;-67
2023/08/10 04:40:21;;;;;;;;;;;;;;;;;;5070373;28;20423;-67
2023/08/10 04:42:47;;;;;;;;;;;;;;;;;;5070635;28;19955;-67
2023/08/10 04:45:14;;;;;;;;;;;;;;;;;;5068535;28;19916;-67
2023/08/10 04:47:40;;;;;;;;;;;;;;;;;;5074796;28;19912;-67
2023/08/10 04:50:07;;;;;;;;;;;;;;;;;;5074869;28;19995;-67
2023/08/10 04:52:32;;;;;;;;;;;;;;;;;;5073926;28;19909;-67
2023/08/10 04:54:58;;;;;;;;;;;;;;;;;;5071144;28;20375;-67
2023/08/10 04:57:24;;;;;;;;;;;;;;;;;;5074586;28;19908;-67
2023/08/10 04:59:50;;;;;;;;;;;;;;;;;;5072834;28;20366;-67
2023/08/10 05:02:16;;;;;;;;;;;;;;;;;;5070733;28;19965;-67
2023/08/10 05:04:42;;;;;;;;;;;;;;;;;;5069945;28;19924;-67
2023/08/10 05:07:08;;;;;;;;;;;;;;;;;;5075464;28;19991;-66
2023/08/10 05:09:34;;;;;;;;;;;;;;;;;;5074228;28;19916;-66
2023/08/10 05:12:00;;;;;;;;;;;;;;;;;;5064994;28;20415;-66
2023/08/10 05:14:26;;;;;;;;;;;;;;;;;;5069145;28;19913;-66
2023/08/10 05:16:52;;;;;;;;;;;;;;;;;;5074478;28;19943;-66
2023/08/10 05:19:18;;;;;;;;;;;;;;;;;;5074025;28;19986;-66
2023/08/10 05:21:43;;;;;;;;;;;;;;;;;;5072521;28;19916;-66
2023/08/10 05:24:09;;;;;;;;;;;;;;;;;;5074648;28;20341;-66
2023/08/10 05:26:35;;;;;;;;;;;;;;;;;;5070750;28;19999;-66
2023/08/10 05:29:01;;;;;;;;;;;;;;;;;;5073849;28;19956;-66
2023/08/10 05:31:27;;;;;;;;;;;;;;;;;;5073553;28;20061;-66
2023/08/10 05:33:54;;;;;;;;;;;;;;;;;;5074030;28;19935;-66
2023/08/10 05:36:20;;;;;;;;;;;;;;;;;;5062872;28;20007;-66
2023/08/10 05:38:46;;;;;;;;;;;;;;;;;;5073940;28;19940;-66
2023/08/10 05:41:12;;;;;;;;;;;;;;;;;;5073450;28;19912;-66
2023/08/10 05:43:38;;;;;;;;;;;;;;;;;;5073552;28;20007;-66
2023/08/10 05:46:05;;;;;;;;;;;;;;;;;;5067847;28;19916;-66
2023/08/10 05:48:31;;;;;;;;;;;;;;;;;;5073823;28;19950;-66
2023/08/10 05:50:57;;;;;;;;;;;;;;;;;;5072218;28;19920;-66
2023/08/10 05:53:23;;;;;;;;;;;;;;;;;;5084680;28;19914;-66
2023/08/10 05:55:49;;;;;;;;;;;;;;;;;;5059397;28;19951;-66
2023/08/10 05:58:15;;;;;;;;;;;;;;;;;;5074267;28;19916;-66
2023/08/10 06:00:41;;;;;;;;;;;;;;;;;;5072473;28;19974;-66
2023/08/10 06:03:07;;;;;;;;;;;;;;;;;;5069366;28;20406;-66
2023/08/10 06:05:33;;;;;;;;;;;;;;;;;;5071573;28;20045;-66
2023/08/10 06:07:59;;;;;;;;;;;;;;;;;;5073356;28;20087;-66
2023/08/10 06:10:25;;;;;;;;;;;;;;;;;;5072402;28;19914;-66
2023/08/10 06:12:51;;;;;;;;;;;;;;;;;;5062876;28;19921;-66
2023/08/10 06:15:17;;;;;;;;;;;;;;;;;;5073216;28;19952;-66
2023/08/10 06:17:43;;;;;;;;;;;;;;;;;;5072725;28;19956;-68
2023/08/10 06:20:16;;;;;;;;;;;;;;;;;;5072571;28;20402;-69
2023/08/10 06:22:42;;;;;;;;;;;;;;;;;;5073016;28;19913;-69
2023/08/10 06:25:09;;;;;;;;;;;;;;;;;;5072830;28;19912;-70
2023/08/10 06:27:35;;;;;;;;;;;;;;;;;;5064097;28;19935;-70
2023/08/10 06:30:01;;;;;;;;;;;;;;;;;;5069992;28;19936;-70
2023/08/10 06:32:27;;;;;;;;;;;;;;;;;;5058817;28;19952;-70
2023/08/10 06:34:53;;;;;;;;;;;;;;;;;;5070521;28;20368;-70
2023/08/10 06:37:20;;;;;;;;;;;;;;;;;;5069603;28;19917;-69
2023/08/10 06:39:49;;;;;;;;;;;;;;;;;;5069357;28;19959;-70
2023/08/10 06:42:17;;;;;;;;;;;;;;;;;;5064001;28;19940;-70
2023/08/10 06:44:43;;;;;;;;;;;;;;;;;;5069204;28;19924;-69
2023/08/10 06:47:10;;;;;;;;;;;;;;;;;;5059240;28;19952;-70
2023/08/10 06:49:36;;;;;;;;;;;;;;;;;;5064225;28;20397;-70
2023/08/10 06:52:03;;;;;;;;;;;;;;;;;;5071948;28;19999;-70
2023/08/10 06:54:29;;;;;;;;;;;;;;;;;;5065281;28;19913;-71
2023/08/10 06:56:55;;;;;;;;;;;;;;;;;;5058748;28;19966;-70
2023/08/10 06:59:21;;;;;;;;;;;;;;;;;;5070977;28;19961;-71
2023/08/10 07:01:47;;;;;;;;;;;;;;;;;;5070889;28;19952;-70
2023/08/10 07:04:13;;;;;;;;;;;;;;;;;;5067073;28;20011;-71
2023/08/10 07:06:39;;;;;;;;;;;;;;;;;;5065915;28;19923;-71
2023/08/10 07:09:06;;;;;;;;;;;;;;;;;;5070161;28;19916;-71
2023/08/10 07:11:32;;;;;;;;;;;;;;;;;;5068712;28;20360;-71
2023/08/10 07:13:58;;;;;;;;;;;;;;;;;;5067969;28;19920;-71
2023/08/10 07:16:24;;;;;;;;;;;;;;;;;;5072525;28;19991;-72
2023/08/10 07:18:50;;;;;;;;;;;;;;;;;;5069803;28;20374;-72
2023/08/10 07:21:17;;;;;;;;;;;;;;;;;;5071374;28;19912;-71
2023/08/10 07:23:43;;;;;;;;;;;;;;;;;;5065270;28;19913;-70
2023/08/10 07:26:10;;;;;;;;;;;;;;;;;;5058553;28;19940;-64
2023/08/10 07:28:36;;;;;;;;;;;;;;;;;;5071303;28;19909;-64
2023/08/10 07:31:02;;;;;;;;;;;;;;;;;;5056927;28;19919;-65
2023/08/10 07:33:28;;;;;;;;;;;;;;;;;;5057160;28;20331;-64
2023/08/10 07:35:54;;;;;;;;;;;;;;;;;;5065721;28;20015;-65
2023/08/10 07:38:20;;;;;;;;;;;;;;;;;;5067063;28;19912;-64
2023/08/10 07:40:46;;;;;;;;;;;;;;;;;;5070052;28;20375;-64
2023/08/10 07:43:12;;;;;;;;;;;;;;;;;;5068085;28;21827;-63
2023/08/10 07:45:38;;;;;;;;;;;;;;;;;;5065091;28;19967;-64
2023/08/10 07:48:04;;;;;;;;;;;;;;;;;;5069136;28;19916;-64
2023/08/10 07:50:31;;;;;;;;;;;;;;;;;;5062973;28;19916;-64
2023/08/10 07:52:57;;;;;;;;;;;;;;;;;;5067534;28;19920;-64
2023/08/10 07:55:23;;;;;;;;;;;;;;;;;;5065351;28;19955;-64
2023/08/10 07:57:49;;;;;;;;;;;;;;;;;;5075278;28;20364;-65
2023/08/10 08:00:14;;;;;;;;;;;;;;;;;;5071085;28;19913;-64
2023/08/10 08:02:40;;;;;;;;;;;;;;;;;;5070978;28;20127;-63
2023/08/10 08:05:06;;;;;;;;;;;;;;;;;;5063963;28;20007;-64
2023/08/10 08:07:32;;;;;;;;;;;;;;;;;;5065903;28;19999;-64
2023/08/10 08:09:58;;;;;;;;;;;;;;;;;;5060511;28;19959;-64
2023/08/10 08:12:26;;;;;;;;;;;;;;;;;;5068988;28;19913;-64
2023/08/10 08:14:52;;;;;;;;;;;;;;;;;;5063349;28;20304;-64
2023/08/10 08:17:18;;;;;;;;;;;;;;;;;;5069760;28;19970;-64
2023/08/10 08:19:44;;;;;;;;;;;;;;;;;;5067194;28;19956;-65
2023/08/10 08:22:10;;;;;;;;;;;;;;;;;;5075271;28;20007;-63
2023/08/10 08:24:35;;;;;;;;;;;;;;;;;;5068421;28;19959;-64
2023/08/10 08:27:01;;;;;;;;;;;;;;;;;;5074502;28;19997;-66
2023/08/10 08:29:27;;;;;;;;;;;;;;;;;;5062753;28;19985;-64
2023/08/10 08:31:53;;;;;;;;;;;;;;;;;;5074624;28;19912;-64
2023/08/10 08:34:19;;;;;;;;;;;;;;;;;;5064916;28;19920;-65
2023/08/10 08:36:45;;;;;;;;;;;;;;;;;;5067656;28;20379;-64
2023/08/10 08:39:11;;;;;;;;;;;;;;;;;;5064337;28;19955;-64
2023/08/10 08:41:37;;;;;;;;;;;;;;;;;;5062268;28;19974;-64
2023/08/10 08:44:04;;;;;;;;;;;;;;;;;;5059989;28;19916;-63
2023/08/10 08:46:30;;;;;;;;;;;;;;;;;;5074803;28;19915;-65
2023/08/10 08:48:55;;;;;;;;;;;;;;;;;;5060734;28;20002;-63
2023/08/10 08:51:21;;;;;;;;;;;;;;;;;;5063415;28;20359;-64
2023/08/10 08:53:47;;;;;;;;;;;;;;;;;;5065635;28;19955;-63
2023/08/10 08:56:14;;;;;;;;;;;;;;;;;;5065546;28;19917;-63
2023/08/10 08:58:40;;;;;;;;;;;;;;;;;;5065851;28;19951;-64
2023/08/10 09:01:06;;;;;;;;;;;;;;;;;;5069386;28;19947;-63
2023/08/10 09:03:32;;;;;;;;;;;;;;;;;;5074158;28;19980;-64
2023/08/10 09:05:57;;;;;;;;;;;;;;;;;;5074783;28;20327;-64
2023/08/10 09:08:23;;;;;;;;;;;;;;;;;;5072604;28;19916;-65
2023/08/10 09:10:49;;;;;;;;;;;;;;;;;;5070924;28;19920;-64
2023/08/10 09:13:16;;;;;;;;;;;;;;;;;;5067705;28;19996;-64
2023/08/10 09:15:42;;;;;;;;;;;;;;;;;;5057863;28;19920;-64
2023/08/10 09:18:07;;;;;;;;;;;;;;;;;;5070483;28;19908;-65
2023/08/10 09:20:33;;;;;;;;;;;;;;;;;;5073907;28;19928;-64
2023/08/10 09:22:59;;;;;;;;;;;;;;;;;;5073011;28;20412;-64
2023/08/10 09:25:26;;;;;;;;;;;;;;;;;;5073788;28;19961;-65
2023/08/10 09:27:52;;;;;;;;;;;;;;;;;;5073897;28;20273;-64
2023/08/10 09:30:18;;;;;;;;;;;;;;;;;;5073608;28;19912;-64
2023/08/10 09:32:44;;;;;;;;;;;;;;;;;;5073682;28;20047;-64
2023/08/10 09:35:10;;;;;;;;;;;;;;;;;;5074031;28;19913;-64
2023/08/10 09:37:36;;;;;;;;;;;;;;;;;;5073727;28;20352;-63
2023/08/10 09:40:06;;;;;;;;;;;;;;;;;;5071846;28;19966;-64
2023/08/10 09:42:32;;;;;;;;;;;;;;;;;;5073164;28;19962;-64
2023/08/10 09:44:57;;;;;;;;;;;;;;;;;;5073762;28;20012;-64
2023/08/10 09:47:24;;;;;;;;;;;;;;;;;;5070979;28;20449;-75
2023/08/10 09:49:49;;;;;;;;;;;;;;;;;;5063744;28;19913;-75
2023/08/10 09:52:16;;;;;;;;;;;;;;;;;;5073668;28;19912;-73
2023/08/10 09:54:42;;;;;;;;;;;;;;;;;;5060343;28;20456;-74
2023/08/10 09:57:07;;;;;;;;;;;;;;;;;;5073151;28;20019;-72
2023/08/10 09:59:33;;;;;;;;;;;;;;;;;;5073404;28;20430;-71
2023/08/10 10:01:59;;;;;;;;;;;;;;;;;;5073019;28;20038;-72
2023/08/10 10:04:25;;;;;;;;;;;;;;;;;;5071731;28;20287;-72
2023/08/10 10:06:51;;;;;;;;;;;;;;;;;;5069603;28;19919;-71
2023/08/10 10:09:18;;;;;;;;;;;;;;;;;;5066776;28;19924;-72
2023/08/10 10:11:44;;;;;;;;;;;;;;;;;;5065353;28;19999;-73
2023/08/10 10:14:10;;;;;;;;;;;;;;;;;;5070626;28;19913;-72
2023/08/10 10:16:36;;;;;;;;;;;;;;;;;;5072988;28;19974;-72
2023/08/10 10:19:02;;;;;;;;;;;;;;;;;;5072911;28;19924;-72
2023/08/10 10:21:28;;;;;;;;;;;;;;;;;;5072834;28;20094;-73
2023/08/10 10:23:58;;;;;;;;;;;;;;;;;;5066365;28;20031;-72
2023/08/10 10:26:24;;;;;;;;;;;;;;;;;;5071219;28;19927;-71
2023/08/10 10:28:50;;;;;;;;;;;;;;;;;;5072911;28;19908;-72
2023/08/10 10:31:17;;;;;;;;;;;;;;;;;;5072632;28;20012;-72
2023/08/10 10:33:43;;;;;;;;;;;;;;;;;;5070641;28;19927;-72
2023/08/10 10:36:08;;;;;;;;;;;;;;;;;;5072452;28;19913;-72
2023/08/10 10:38:34;;;;;;;;;;;;;;;;;;5071369;28;19950;-72
2023/08/10 10:41:00;;;;;;;;;;;;;;;;;;5071579;28;19952;-73
2023/08/10 10:43:26;;;;;;;;;;;;;;;;;;5064354;28;19947;-74
2023/08/10 10:45:54;;;;;;;;;;;;;;;;;;5067736;28;20004;-73
2023/08/10 10:48:20;;;;;;;;;;;;;;;;;;5062235;28;19912;-74
2023/08/10 10:50:46;;;;;;;;;;;;;;;;;;5071987;28;20364;-72
2023/08/10 10:53:13;;;;;;;;;;;;;;;;;;5062057;28;20007;-72
2023/08/10 10:55:39;;;;;;;;;;;;;;;;;;5060938;28;19962;-71
2023/08/10 10:58:06;;;;;;;;;;;;;;;;;;5071033;28;19956;-62
2023/08/10 11:00:32;;;;;;;;;;;;;;;;;;5071975;28;19913;-61
2023/08/10 11:02:58;;;;;;;;;;;;;;;;;;5062196;28;19959;-62
2023/08/10 11:05:24;;;;;;;;;;;;;;;;;;5068698;28;19924;-61
2023/08/10 11:07:50;;;;;;;;;;;;;;;;;;5066670;28;19966;-65
2023/08/10 11:10:16;;;;;;;;;;;;;;;;;;5059172;28;20339;-61
2023/08/10 11:12:42;;;;;;;;;;;;;;;;;;5056434;28;20491;-61
2023/08/10 11:15:08;;;;;;;;;;;;;;;;;;5071898;28;19920;-61
2023/08/10 11:17:34;;;;;;;;;;;;;;;;;;5067909;28;20642;-61
2023/08/10 11:20:00;;;;;;;;;;;;;;;;;;5068896;28;19981;-61
2023/08/10 11:22:27;;;;;;;;;;;;;;;;;;5067695;28;20398;-61
2023/08/10 11:24:53;;;;;;;;;;;;;;;;;;5068697;28;20000;-66
2023/08/10 11:27:19;;;;;;;;;;;;;;;;;;5062846;28;19913;-61
2023/08/10 11:29:45;;;;;;;;;;;;;;;;;;5057004;28;19968;-64
2023/08/10 11:32:11;;;;;;;;;;;;;;;;;;5060672;28;20439;-64
2023/08/10 11:34:38;;;;;;;;;;;;;;;;;;5063884;28;19912;-64
2023/08/10 11:37:04;;;;;;;;;;;;;;;;;;5065275;28;20034;-63
2023/08/10 11:39:30;;;;;;;;;;;;;;;;;;5058132;28;19939;-63
2023/08/10 11:41:56;;;;;;;;;;;;;;;;;;5061208;28;19957;-63
2023/08/10 11:44:23;;;;;;;;;;;;;;;;;;5077721;28;19916;-63
2023/08/10 11:46:49;;;;;;;;;;;;;;;;;;5061816;28;20478;-63
2023/08/10 11:49:15;;;;;;;;;;;;;;;;;;5061281;28;19924;-64
2023/08/10 11:51:41;;;;;;;;;;;;;;;;;;5065716;28;19912;-66
2023/08/10 11:54:07;;;;;;;;;;;;;;;;;;5061469;28;19916;-63
2023/08/10 11:56:34;;;;;;;;;;;;;;;;;;5060780;28;20368;-63
2023/08/10 11:59:00;;;;;;;;;;;;;;;;;;5060514;28;19917;-63
2023/08/10 12:01:26;;;;;;;;;;;;;;;;;;5063691;28;20336;-64
2023/08/10 12:03:53;;;;;;;;;;;;;;;;;;5054771;28;19920;-61
2023/08/10 12:06:20;;;;;;;;;;;;;;;;;;5057387;28;19923;-70
2023/08/10 12:08:45;;;;;;;;;;;;;;;;;;5066910;28;20015;-69
2023/08/10 12:11:11;;;;;;;;;;;;;;;;;;5065082;28;20011;-69
2023/08/10 12:13:37;;;;;;;;;;;;;;;;;;5060669;28;19967;-69
2023/08/10 12:16:03;;;;;;;;;;;;;;;;;;5068373;28;20374;-70
2023/08/10 12:18:29;;;;;;;;;;;;;;;;;;5070854;28;20007;-70
2023/08/10 12:20:55;;;;;;;;;;;;;;;;;;5070755;28;20001;-70
2023/08/10 12:23:21;;;;;;;;;;;;;;;;;;5067399;28;19924;-70
2023/08/10 12:25:50;;;;;;;;;;;;;;;;;;5063309;28;19912;-68
2023/08/10 12:28:16;;;;;;;;;;;;;;;;;;5071059;28;19924;-70
2023/08/10 12:30:42;;;;;;;;;;;;;;;;;;5066831;28;19961;-71
2023/08/10 12:33:09;;;;;;;;;;;;;;;;;;5062743;28;20327;-68
2023/08/10 12:35:35;;;;;;;;;;;;;;;;;;5077418;28;19916;-67
2023/08/10 12:38:01;;;;;;;;;;;;;;;;;;5068471;28;19960;-69
2023/08/10 12:40:27;;;;;;;;;;;;;;;;;;5064130;28;20325;-68
2023/08/10 12:42:54;;;;;;;;;;;;;;;;;;5065600;28;19924;-67
2023/08/10 12:45:21;;;;;;;;;;;;;;;;;;5069970;28;20511;-68
2023/08/10 12:47:46;;;;;;;;;;;;;;;;;;5065831;28;19970;-68
2023/08/10 12:50:12;;;;;;;;;;;;;;;;;;5063210;28;20037;-68
2023/08/10 12:52:38;;;;;;;;;;;;;;;;;;5059538;28;19991;-68
2023/08/10 12:55:04;;;;;;;;;;;;;;;;;;5064127;28;20361;-69
2023/08/10 12:57:30;;;;;;;;;;;;;;;;;;5066624;28;19958;-70
2023/08/10 12:59:56;;;;;;;;;;;;;;;;;;5063855;28;20011;-68
2023/08/10 13:02:22;;;;;;;;;;;;;;;;;;5064982;28;19959;-70
2023/08/10 13:04:48;;;;;;;;;;;;;;;;;;5056046;28;19917;-69
2023/08/10 13:07:14;;;;;;;;;;;;;;;;;;5067003;28;20313;-67
2023/08/10 13:09:40;;;;;;;;;;;;;;;;;;5062891;28;19951;-70
2023/08/10 13:12:06;;;;;;;;;;;;;;;;;;5063045;28;19917;-71
2023/08/10 13:14:32;;;;;;;;;;;;;;;;;;5069877;28;19951;-72
2023/08/10 13:16:58;;;;;;;;;;;;;;;;;;5068178;28;20338;-65
2023/08/10 13:19:24;;;;;;;;;;;;;;;;;;5074095;28;19924;-65
2023/08/10 13:21:50;;;;;;;;;;;;;;;;;;5069997;28;19974;-65
2023/08/10 13:24:16;;;;;;;;;;;;;;;;;;5067914;28;19963;-65
2023/08/10 13:26:41;;;;;;;;;;;;;;;;;;5068754;28;20434;-65
2023/08/10 13:29:07;;;;;;;;;;;;;;;;;;5074167;28;20393;-66
2023/08/10 13:31:35;;;;;;;;;;;;;;;;;;5073139;28;19951;-65
2023/08/10 13:34:05;;;;;;;;;;;;;;;;;;5070825;28;19924;-65
2023/08/10 13:36:31;;;;;;;;;;;;;;;;;;5071186;28;19912;-65
2023/08/10 13:38:57;;;;;;;;;;;;;;;;;;5079465;28;19923;-65
2023/08/10 13:41:23;;;;;;;;;;;;;;;;;;5070015;28;20391;-65
2023/08/10 13:43:49;;;;;;;;;;;;;;;;;;5073581;28;19931;-65
2023/08/10 13:46:15;;;;;;;;;;;;;;;;;;5071718;28;20287;-66
2023/08/10 13:48:41;;;;;;;;;;;;;;;;;;5082395;28;19923;-65
2023/08/10 13:51:07;;;;;;;;;;;;;;;;;;5073322;28;19992;-65
2023/08/10 13:53:33;;;;;;;;;;;;;;;;;;5071388;28;19938;-66
2023/08/10 13:55:59;;;;;;;;;;;;;;;;;;5063637;28;19917;-66
2023/08/10 13:58:25;;;;;;;;;;;;;;;;;;5069806;28;19916;-65
2023/08/10 14:00:51;;;;;;;;;;;;;;;;;;5072286;28;20011;-65
2023/08/10 14:03:17;;;;;;;;;;;;;;;;;;5073601;28;19913;-65
2023/08/10 14:05:43;;;;;;;;;;;;;;;;;;5064090;28;20336;-65
2023/08/10 14:08:09;;;;;;;;;;;;;;;;;;5073126;28;19948;-65
2023/08/10 14:10:35;;;;;;;;;;;;;;;;;;5073083;28;20387;-66
2023/08/10 14:13:00;;;;;;;;;;;;;;;;;;5070993;28;19940;-65
2023/08/10 14:15:26;;;;;;;;;;;;;;;;;;5064274;28;19913;-65
2023/08/10 14:17:53;;;;;;;;;;;;;;;;;;5069174;28;20446;-65
2023/08/10 14:20:19;;;;;;;;;;;;;;;;;;5069620;28;19931;-65
2023/08/10 14:22:44;;;;;;;;;;;;;;;;;;5068948;28;19948;-65
2023/08/10 14:25:10;;;;;;;;;;;;;;;;;;5069483;28;20347;-64
2023/08/10 14:27:36;;;;;;;;;;;;;;;;;;5070512;28;19995;-69
2023/08/10 14:30:02;;;;;;;;;;;;;;;;;;5067090;28;19916;-69
2023/08/10 14:32:28;;;;;;;;;;;;;;;;;;5070190;28;19920;-70
2023/08/10 14:34:54;;;;;;;;;;;;;;;;;;5064942;28;20022;-70
2023/08/10 14:37:20;;;;;;;;;;;;;;;;;;5070970;28;20066;-69
2023/08/10 14:39:46;;;;;;;;;;;;;;;;;;5063853;28;20279;-69
2023/08/10 14:42:12;;;;;;;;;;;;;;;;;;5062547;28;20325;-69
2023/08/10 14:44:38;;;;;;;;;;;;;;;;;;5072292;28;19927;-70
2023/08/10 14:47:04;;;;;;;;;;;;;;;;;;5072199;28;20036;-72
2023/08/10 14:49:31;;;;;;;;;;;;;;;;;;5067602;28;20392;-69
2023/08/10 14:51:57;;;;;;;;;;;;;;;;;;5070112;28;19912;-70
2023/08/10 14:54:24;;;;;;;;;;;;;;;;;;5071690;28;20355;-65
2023/08/10 14:56:51;;;;;;;;;;;;;;;;;;5071467;28;20010;-69
2023/08/10 14:59:17;;;;;;;;;;;;;;;;;;5065959;28;19916;-70
2023/08/10 15:01:43;;;;;;;;;;;;;;;;;;5059406;28;19936;-69
2023/08/10 15:04:09;;;;;;;;;;;;;;;;;;5068526;28;20383;-69
2023/08/10 15:06:35;;;;;;;;;;;;;;;;;;5061127;28;19913;-72
2023/08/10 15:09:01;;;;;;;;;;;;;;;;;;5065248;28;19912;-72
2023/08/10 15:11:27;;;;;;;;;;;;;;;;;;5070452;28;19912;-69
2023/08/10 15:13:53;;;;;;;;;;;;;;;;;;5065599;28;19969;-69
2023/08/10 15:16:19;;;;;;;;;;;;;;;;;;5068219;28;19977;-70
2023/08/10 15:18:46;;;;;;;;;;;;;;;;;;5063830;28;19917;-69
2023/08/10 15:21:12;;;;;;;;;;;;;;;;;;5064744;28;19920;-69
2023/08/10 15:23:38;;;;;;;;;;;;;;;;;;5067472;28;19977;-70
2023/08/10 15:26:04;;;;;;;;;;;;;;;;;;5063074;28;19955;-70
2023/08/10 15:28:32;;;;;;;;;;;;;;;;;;5063995;28;19958;-70
2023/08/10 15:30:58;;;;;;;;;;;;;;;;;;5059513;28;19919;-71
2023/08/10 15:33:24;;;;;;;;;;;;;;;;;;5068907;28;20376;-70
2023/08/10 15:35:50;;;;;;;;;;;;;;;;;;5070340;28;20010;-70
2023/08/10 15:38:16;;;;;;;;;;;;;;;;;;5071646;28;19917;-70
2023/08/10 15:40:42;;;;;;;;;;;;;;;;;;5062354;28;19970;-71
2023/08/10 15:43:08;;;;;;;;;;;;;;;;;;5064739;28;20435;-71
2023/08/10 15:45:34;;;;;;;;;;;;;;;;;;5071271;28;19956;-71
2023/08/10 15:48:00;;;;;;;;;;;;;;;;;;5064886;28;19916;-71
2023/08/10 15:50:26;;;;;;;;;;;;;;;;;;5067645;28;19951;-71
2023/08/10 15:52:52;;;;;;;;;;;;;;;;;;5068790;28;19927;-70
2023/08/10 15:55:18;;;;;;;;;;;;;;;;;;5067179;28;19948;-70
2023/08/10 15:57:44;;;;;;;;;;;;;;;;;;5067067;28;19936;-70
2023/08/10 16:00:12;;;;;;;;;;;;;;;;;;5071003;28;19935;-70
2023/08/10 16:02:39;;;;;;;;;;;;;;;;;;5069016;28;19999;-70
2023/08/10 16:05:05;;;;;;;;;;;;;;;;;;5070431;28;19926;-70
2023/08/10 16:07:31;;;;;;;;;;;;;;;;;;5064910;28;19981;-68
2023/08/10 16:09:57;;;;;;;;;;;;;;;;;;5069827;28;20351;-70
2023/08/10 16:12:23;;;;;;;;;;;;;;;;;;5069277;28;19959;-69
2023/08/10 16:14:49;;;;;;;;;;;;;;;;;;5069363;28;20296;-69
2023/08/10 16:17:15;;;;;;;;;;;;;;;;;;5065926;28;19964;-69
2023/08/10 16:19:40;;;;;;;;;;;;;;;;;;5071002;28;19925;-69
2023/08/10 16:22:06;;;;;;;;;;;;;;;;;;5070766;28;19919;-69
2023/08/10 16:24:32;;;;;;;;;;;;;;;;;;5070462;28;20021;-70
2023/08/10 16:26:58;;;;;;;;;;;;;;;;;;5070973;28;19913;-69
2023/08/10 16:29:24;;;;;;;;;;;;;;;;;;5071041;28;19916;-69
2023/08/10 16:31:50;;;;;;;;;;;;;;;;;;5070469;28;20039;-69
2023/08/10 16:34:16;;;;;;;;;;;;;;;;;;5071015;28;19947;-70
2023/08/10 16:36:42;;;;;;;;;;;;;;;;;;5068896;28;19915;-69